createdAt,value
2022-10-23T00:00:44.649Z,13.36
2022-10-23T00:03:11.489Z,13.36
2022-10-23T00:05:41.453Z,13.39
2022-10-23T00:08:08.051Z,13.40
2022-10-23T00:10:35.364Z,13.39
2022-10-23T00:13:02.739Z,13.35
2022-10-23T00:15:29.551Z,13.41
2022-10-23T00:17:56.298Z,13.42
2022-10-23T00:20:22.926Z,13.32
2022-10-23T00:22:49.546Z,13.34
2022-10-23T00:25:16.430Z,13.31
2022-10-23T00:27:43.463Z,13.38
2022-10-23T00:30:11.023Z,13.38
2022-10-23T00:32:38.229Z,13.33
2022-10-23T00:35:05.659Z,13.41
2022-10-23T00:37:32.238Z,13.42
2022-10-23T00:39:58.787Z,13.41
2022-10-23T00:42:26.293Z,13.42
2022-10-23T00:45:17.639Z,13.44
2022-10-23T00:47:44.980Z,13.50
2022-10-23T00:50:12.020Z,13.54
2022-10-23T00:52:45.137Z,13.59
2022-10-23T00:55:12.400Z,13.56
2022-10-23T00:57:44.522Z,13.57
2022-10-23T01:00:15.531Z,13.54
2022-10-23T01:02:42.933Z,13.54
2022-10-23T01:05:10.085Z,13.49
2022-10-23T01:07:49.553Z,13.51
2022-10-23T01:10:30.085Z,13.49
2022-10-23T01:13:12.971Z,13.44
2022-10-23T01:15:57.638Z,13.38
2022-10-23T01:18:31.883Z,13.31
2022-10-23T01:21:13.490Z,13.26
2022-10-23T01:24:19.708Z,13.24
2022-10-23T01:26:59.048Z,13.30
2022-10-23T01:29:31.830Z,13.29
2022-10-23T01:32:07.973Z,13.39
2022-10-23T01:35:05.234Z,13.39
2022-10-23T01:37:39.757Z,13.33
2022-10-23T01:40:18.407Z,13.30
2022-10-23T01:42:51.075Z,13.32
2022-10-23T01:45:33.349Z,13.33
2022-10-23T01:48:03.574Z,13.24
2022-10-23T01:50:32.064Z,13.20
2022-10-23T01:53:04.621Z,13.14
2022-10-23T01:55:33.875Z,13.11
2022-10-23T01:58:07.344Z,13.12
2022-10-23T02:00:41.239Z,13.06
2022-10-23T02:03:09.392Z,13.05
2022-10-23T02:05:39.272Z,13.13
2022-10-23T02:08:06.863Z,13.10
2022-10-23T02:11:00.760Z,13.19
2022-10-23T02:13:36.120Z,13.19
2022-10-23T02:16:19.701Z,13.14
2022-10-23T02:18:52.747Z,13.19
2022-10-23T02:21:31.859Z,13.14
2022-10-23T02:24:11.353Z,13.20
2022-10-23T02:27:03.363Z,13.22
2022-10-23T02:29:39.584Z,13.23
2022-10-23T02:32:09.830Z,13.22
2022-10-23T02:34:36.713Z,13.31
2022-10-23T02:37:03.355Z,13.34
2022-10-23T02:39:31.098Z,13.44
2022-10-23T02:42:22.718Z,13.47
2022-10-23T02:45:15.737Z,13.52
2022-10-23T02:48:06.367Z,13.56
2022-10-23T02:50:38.863Z,13.62
2022-10-23T02:53:24.710Z,13.61
2022-10-23T02:56:02.886Z,13.73
2022-10-23T02:58:33.434Z,13.78
2022-10-23T03:01:08.593Z,13.75
2022-10-23T03:03:43.383Z,13.78
2022-10-23T03:06:10.537Z,13.70
2022-10-23T03:08:45.051Z,13.69
2022-10-23T03:11:11.684Z,13.62
2022-10-23T03:13:38.291Z,13.66
2022-10-23T03:16:04.878Z,13.69
2022-10-23T03:18:34.786Z,13.70
2022-10-23T03:21:03.091Z,13.65
2022-10-23T03:23:33.427Z,13.63
2022-10-23T03:26:01.409Z,13.61
2022-10-23T03:28:40.263Z,13.68
2022-10-23T03:31:07.066Z,13.75
2022-10-23T03:33:33.815Z,13.76
2022-10-23T03:36:08.503Z,13.82
2022-10-23T03:38:35.630Z,13.85
2022-10-23T03:41:03.833Z,13.89
2022-10-23T03:43:30.540Z,13.86
2022-10-23T03:45:57.337Z,13.88
2022-10-23T03:48:25.971Z,13.88
2022-10-23T03:50:58.328Z,13.91
2022-10-23T03:53:24.987Z,13.93
2022-10-23T03:55:51.523Z,13.90
2022-10-23T03:58:18.493Z,13.87
2022-10-23T04:00:46.059Z,13.97
2022-10-23T04:03:12.787Z,13.98
2022-10-23T04:05:41.353Z,13.90
2022-10-23T04:08:08.931Z,14.01
2022-10-23T04:10:35.532Z,13.98
2022-10-23T04:13:02.158Z,13.93
2022-10-23T04:15:34.877Z,13.94
2022-10-23T04:18:02.481Z,13.88
2022-10-23T04:20:32.003Z,13.90
2022-10-23T04:23:02.007Z,13.83
2022-10-23T04:25:28.679Z,13.73
2022-10-23T04:27:55.993Z,13.71
2022-10-23T04:30:22.877Z,13.61
2022-10-23T04:32:53.100Z,13.59
2022-10-23T04:35:20.260Z,13.50
2022-10-23T04:37:47.103Z,13.57
2022-10-23T04:40:14.363Z,13.57
2022-10-23T04:42:41.308Z,13.64
2022-10-23T04:45:08.705Z,13.64
2022-10-23T04:47:35.638Z,13.55
2022-10-23T04:50:03.372Z,13.52
2022-10-23T04:52:49.297Z,13.51
2022-10-23T04:55:34.051Z,13.47
2022-10-23T04:58:13.012Z,13.40
2022-10-23T05:00:41.396Z,13.47
2022-10-23T05:03:13.050Z,13.45
2022-10-23T05:05:42.455Z,13.45
2022-10-23T05:08:32.501Z,13.41
2022-10-23T05:11:11.901Z,13.37
2022-10-23T05:13:43.679Z,13.42
2022-10-23T05:16:13.471Z,13.41
2022-10-23T05:18:47.129Z,13.38
2022-10-23T05:21:21.839Z,13.39
2022-10-23T05:23:50.262Z,13.41
2022-10-23T05:26:17.173Z,13.42
2022-10-23T05:28:46.353Z,13.46
2022-10-23T05:31:17.650Z,13.51
2022-10-23T05:33:52.403Z,13.47
2022-10-23T05:36:21.647Z,13.50
2022-10-23T05:38:54.172Z,13.52
2022-10-23T05:41:21.488Z,13.50
2022-10-23T05:43:48.495Z,13.50
2022-10-23T05:46:33.752Z,13.51
2022-10-23T05:49:19.863Z,13.42
2022-10-23T05:51:55.984Z,13.46
2022-10-23T05:54:40.268Z,13.40
2022-10-23T05:57:22.956Z,13.39
2022-10-23T05:59:51.670Z,13.40
2022-10-23T06:02:21.477Z,13.40
2022-10-23T06:04:53.638Z,13.49
2022-10-23T06:07:40.707Z,13.47
2022-10-23T06:10:09.945Z,13.52
2022-10-23T06:12:40.697Z,13.56
2022-10-23T06:15:11.563Z,13.55
2022-10-23T06:18:02.083Z,13.44
2022-10-23T06:20:31.026Z,13.51
2022-10-23T06:23:07.988Z,13.52
2022-10-23T06:25:55.837Z,13.48
2022-10-23T06:28:30.893Z,13.52
2022-10-23T06:30:58.930Z,13.50
2022-10-23T06:33:25.752Z,13.47
2022-10-23T06:35:56.181Z,13.51
2022-10-23T06:38:23.237Z,13.51
2022-10-23T06:40:57.349Z,13.59
2022-10-23T06:43:33.647Z,13.61
2022-10-23T06:46:21.073Z,13.65
2022-10-23T06:49:06.529Z,13.69
2022-10-23T06:51:40.828Z,13.73
2022-10-23T06:54:12.016Z,13.77
2022-10-23T06:56:51.201Z,13.81
2022-10-23T06:59:22.675Z,13.83
2022-10-23T07:01:51.521Z,13.91
2022-10-23T07:04:18.247Z,13.95
2022-10-23T07:06:45.546Z,13.98
2022-10-23T07:09:12.547Z,13.97
2022-10-23T07:11:54.153Z,14.01
2022-10-23T07:14:27.615Z,14.08
2022-10-23T07:16:54.962Z,14.10
2022-10-23T07:19:23.116Z,14.14
2022-10-23T07:21:55.378Z,14.25
2022-10-23T07:24:38.406Z,14.30
2022-10-23T07:27:13.814Z,14.35
2022-10-23T07:29:40.944Z,14.36
2022-10-23T07:32:09.937Z,14.45
2022-10-23T07:34:55.717Z,14.49
2022-10-23T07:37:30.056Z,14.57
2022-10-23T07:39:58.825Z,14.61
2022-10-23T07:42:25.679Z,14.64
2022-10-23T07:44:52.394Z,14.69
2022-10-23T07:47:19.065Z,14.69
2022-10-23T07:49:50.012Z,14.79
2022-10-23T07:52:18.916Z,14.80
2022-10-23T07:55:04.767Z,14.85
2022-10-23T07:57:34.137Z,14.92
2022-10-23T08:00:10.977Z,14.99
2022-10-23T08:02:40.404Z,15.02
2022-10-23T08:05:09.648Z,15.13
2022-10-23T08:07:48.130Z,15.24
2022-10-23T08:10:16.537Z,15.31
2022-10-23T08:12:44.510Z,15.44
2022-10-23T08:15:12.802Z,15.47
2022-10-23T08:17:50.972Z,15.50
2022-10-23T08:20:23.363Z,15.67
2022-10-23T08:22:51.527Z,15.75
2022-10-23T08:25:25.026Z,15.73
2022-10-23T08:27:52.830Z,15.78
2022-10-23T08:30:19.949Z,15.85
2022-10-23T08:32:47.213Z,15.87
2022-10-23T08:35:14.811Z,15.85
2022-10-23T08:37:41.947Z,15.82
2022-10-23T08:40:23.235Z,15.84
2022-10-23T08:43:41.618Z,15.84
2022-10-23T08:46:33.932Z,15.87
2022-10-23T08:49:39.501Z,15.94
2022-10-23T08:52:39.445Z,15.95
2022-10-23T08:55:21.714Z,16.05
2022-10-23T08:58:06.648Z,16.13
2022-10-23T09:00:35.811Z,16.15
2022-10-23T09:03:05.857Z,16.13
2022-10-23T09:05:36.838Z,16.12
2022-10-23T09:08:28.990Z,16.14
2022-10-23T09:11:11.319Z,16.22
2022-10-23T09:13:56.271Z,16.30
2022-10-23T09:16:46.853Z,16.39
2022-10-23T09:19:20.175Z,16.48
2022-10-23T09:21:49.944Z,16.60
2022-10-23T09:24:20.651Z,16.57
2022-10-23T09:26:49.708Z,16.66
2022-10-23T09:29:24.618Z,16.70
2022-10-23T09:31:53.871Z,16.77
2022-10-23T09:34:26.168Z,16.73
2022-10-23T09:36:58.651Z,16.78
2022-10-23T09:39:34.585Z,16.81
2022-10-23T09:42:13.408Z,16.90
2022-10-23T09:44:48.988Z,17.01
2022-10-23T09:47:22.637Z,17.03
2022-10-23T09:49:52.952Z,17.11
2022-10-23T09:52:30.007Z,17.10
2022-10-23T09:55:02.912Z,17.18
2022-10-23T09:57:38.430Z,17.28
2022-10-23T10:00:17.778Z,17.29
2022-10-23T10:03:00.525Z,17.34
2022-10-23T10:05:42.078Z,17.38
2022-10-23T10:08:33.179Z,17.42
2022-10-23T10:11:14.819Z,17.52
2022-10-23T10:14:18.837Z,17.68
2022-10-23T10:17:00.848Z,17.88
2022-10-23T10:19:57.558Z,17.95
2022-10-23T10:23:02.250Z,18.02
2022-10-23T10:26:07.840Z,18.21
2022-10-23T10:29:05.219Z,18.23
2022-10-23T10:32:03.769Z,18.35
2022-10-23T10:34:46.091Z,18.40
2022-10-23T10:37:42.239Z,18.41
2022-10-23T10:40:17.440Z,18.53
2022-10-23T10:42:58.612Z,18.62
2022-10-23T10:45:37.659Z,18.73
2022-10-23T10:48:13.604Z,18.85
2022-10-23T10:51:05.959Z,18.89
2022-10-23T10:54:01.382Z,18.98
2022-10-23T10:56:31.538Z,19.00
2022-10-23T10:59:19.711Z,18.98
2022-10-23T11:02:09.203Z,19.15
2022-10-23T11:04:50.585Z,19.15
2022-10-23T11:07:22.842Z,19.22
2022-10-23T11:09:50.069Z,19.17
2022-10-23T11:12:20.505Z,19.19
2022-10-23T11:14:47.817Z,19.21
2022-10-23T11:17:32.581Z,19.37
2022-10-23T11:20:16.898Z,19.44
2022-10-23T11:23:10.708Z,19.56
2022-10-23T11:25:59.389Z,19.60
2022-10-23T11:28:52.107Z,19.58
2022-10-23T11:31:39.294Z,19.63
2022-10-23T11:34:35.252Z,19.83
2022-10-23T11:37:04.686Z,19.84
2022-10-23T11:39:33.502Z,19.93
2022-10-23T11:42:04.526Z,19.91
2022-10-23T11:44:44.800Z,20.06
2022-10-23T11:47:39.565Z,20.04
2022-10-23T11:50:07.202Z,19.99
2022-10-23T11:52:50.324Z,20.03
2022-10-23T11:55:22.572Z,20.13
2022-10-23T11:58:04.559Z,20.10
2022-10-23T12:00:34.719Z,20.25
2022-10-23T12:03:02.449Z,20.17
2022-10-23T12:05:34.891Z,20.15
2022-10-23T12:08:03.934Z,20.10
2022-10-23T12:10:34.385Z,20.14
2022-10-23T12:13:04.245Z,20.13
2022-10-23T12:15:37.287Z,20.08
2022-10-23T12:18:22.845Z,20.13
2022-10-23T12:21:00.784Z,20.20
2022-10-23T12:23:30.196Z,20.25
2022-10-23T12:25:59.728Z,20.28
2022-10-23T12:28:58.544Z,20.22
2022-10-23T12:32:10.743Z,20.28
2022-10-23T12:34:54.590Z,20.29
2022-10-23T12:37:55.936Z,20.30
2022-10-23T12:40:29.636Z,20.39
2022-10-23T12:42:59.094Z,20.36
2022-10-23T12:45:32.418Z,20.43
2022-10-23T12:47:59.868Z,20.46
2022-10-23T12:50:29.238Z,20.42
2022-10-23T12:52:58.774Z,20.36
2022-10-23T12:55:30.857Z,20.42
2022-10-23T12:58:00.433Z,20.42
2022-10-23T13:00:27.152Z,20.42
2022-10-23T13:03:02.817Z,20.29
2022-10-23T13:05:31.999Z,20.41
2022-10-23T13:08:00.370Z,20.41
2022-10-23T13:10:42.272Z,20.54
2022-10-23T13:13:13.717Z,20.50
2022-10-23T13:15:43.271Z,20.47
2022-10-23T13:18:14.585Z,20.60
2022-10-23T13:20:50.207Z,20.50
2022-10-23T13:23:34.062Z,20.48
2022-10-23T13:26:22.762Z,20.44
2022-10-23T13:28:52.586Z,20.62
2022-10-23T13:31:27.306Z,20.64
2022-10-23T13:34:06.590Z,20.67
2022-10-23T13:36:36.856Z,20.70
2022-10-23T13:39:10.709Z,20.80
2022-10-23T13:41:40.709Z,20.79
2022-10-23T13:44:07.680Z,20.70
2022-10-23T13:46:34.361Z,20.71
2022-10-23T13:49:01.027Z,20.76
2022-10-23T13:51:29.327Z,20.78
2022-10-23T13:53:57.658Z,20.77
2022-10-23T13:56:26.473Z,20.86
2022-10-23T13:58:53.825Z,20.80
2022-10-23T14:01:28.096Z,20.74
2022-10-23T14:03:57.458Z,20.78
2022-10-23T14:06:24.275Z,20.68
2022-10-23T14:08:52.118Z,20.76
2022-10-23T14:11:20.070Z,20.88
2022-10-23T14:13:47.611Z,20.85
2022-10-23T14:16:16.988Z,20.72
2022-10-23T14:18:44.152Z,20.75
2022-10-23T14:21:13.451Z,20.77
2022-10-23T14:23:40.279Z,20.59
2022-10-23T14:26:10.217Z,20.58
2022-10-23T14:28:37.681Z,20.54
2022-10-23T14:31:09.472Z,20.53
2022-10-23T14:33:36.486Z,20.47
2022-10-23T14:36:03.509Z,20.39
2022-10-23T14:38:30.168Z,20.41
2022-10-23T14:40:57.080Z,20.28
2022-10-23T14:43:24.551Z,20.21
2022-10-23T14:45:51.695Z,20.21
2022-10-23T14:48:18.933Z,20.25
2022-10-23T14:50:49.818Z,20.28
2022-10-23T14:53:19.151Z,20.16
2022-10-23T14:55:45.753Z,20.09
2022-10-23T14:58:12.546Z,20.10
2022-10-23T15:00:39.532Z,20.06
2022-10-23T15:03:06.251Z,20.14
2022-10-23T15:05:32.849Z,20.16
2022-10-23T15:08:01.663Z,20.15
2022-10-23T15:10:28.462Z,20.08
2022-10-23T15:12:55.135Z,20.06
2022-10-23T15:15:23.668Z,20.04
2022-10-23T15:17:50.258Z,20.01
2022-10-23T15:20:16.853Z,20.00
2022-10-23T15:22:43.871Z,19.91
2022-10-23T15:25:14.252Z,19.82
2022-10-23T15:27:45.471Z,19.85
2022-10-23T15:30:12.650Z,19.76
2022-10-23T15:32:39.330Z,19.74
2022-10-23T15:35:06.147Z,19.75
2022-10-23T15:37:32.828Z,19.70
2022-10-23T15:40:03.040Z,19.60
2022-10-23T15:42:29.886Z,19.52
2022-10-23T15:44:56.613Z,19.57
2022-10-23T15:47:23.317Z,19.53
2022-10-23T15:49:50.005Z,19.44
2022-10-23T15:52:16.926Z,19.52
2022-10-23T15:54:43.882Z,19.50
2022-10-23T15:57:10.727Z,19.52
2022-10-23T15:59:37.284Z,19.50
2022-10-23T16:02:04.377Z,19.43
2022-10-23T16:04:31.420Z,19.43
2022-10-23T16:06:58.401Z,19.41
2022-10-23T16:09:24.940Z,19.43
2022-10-23T16:11:53.690Z,19.49
2022-10-23T16:14:20.283Z,19.39
2022-10-23T16:16:47.406Z,19.44
2022-10-23T16:19:14.480Z,19.41
2022-10-23T16:21:41.449Z,19.44
2022-10-23T16:24:10.684Z,19.31
2022-10-23T16:26:39.585Z,19.33
2022-10-23T16:29:08.061Z,19.31
2022-10-23T16:31:35.854Z,19.37
2022-10-23T16:34:05.010Z,19.35
2022-10-23T16:36:31.717Z,19.31
2022-10-23T16:39:35.993Z,19.28
2022-10-23T16:42:21.750Z,19.19
2022-10-23T16:45:01.143Z,19.11
2022-10-23T16:47:30.685Z,19.03
2022-10-23T16:49:57.314Z,19.01
2022-10-23T16:52:25.983Z,19.06
2022-10-23T16:54:53.135Z,19.04
2022-10-23T16:57:20.257Z,19.12
2022-10-23T16:59:47.001Z,19.09
2022-10-23T17:02:14.232Z,19.11
2022-10-23T17:04:41.070Z,19.09
2022-10-23T17:07:07.901Z,19.05
2022-10-23T17:09:35.806Z,19.04
2022-10-23T17:12:02.544Z,18.92
2022-10-23T17:14:29.374Z,18.85
2022-10-23T17:16:59.370Z,18.77
2022-10-23T17:22:15.002Z,18.67
2022-10-23T17:24:46.287Z,18.57
2022-10-23T17:27:16.365Z,18.54
2022-10-23T17:29:43.454Z,18.40
2022-10-23T17:32:10.467Z,18.37
2022-10-23T17:34:38.249Z,18.40
2022-10-23T17:37:05.237Z,18.39
2022-10-23T17:39:32.257Z,18.35
2022-10-23T17:42:00.781Z,18.37
2022-10-23T17:44:29.152Z,18.27
2022-10-23T17:46:56.012Z,18.23
2022-10-23T17:49:25.154Z,18.14
2022-10-23T17:51:54.724Z,18.20
2022-10-23T17:54:22.490Z,18.21
2022-10-23T17:56:49.144Z,18.23
2022-10-23T17:59:19.418Z,18.19
2022-10-23T18:01:48.117Z,18.16
2022-10-23T18:04:16.483Z,18.15
2022-10-23T18:06:53.370Z,18.12
2022-10-23T18:09:21.832Z,18.19
2022-10-23T18:11:49.342Z,18.20
2022-10-23T18:14:18.025Z,18.26
2022-10-23T18:16:46.460Z,18.20
2022-10-23T18:19:14.578Z,18.19
2022-10-23T18:21:41.270Z,18.34
2022-10-23T18:24:08.283Z,18.40
2022-10-23T18:26:35.434Z,18.42
2022-10-23T18:29:08.190Z,18.53
2022-10-23T18:31:37.419Z,18.62
2022-10-23T18:34:07.869Z,18.71
2022-10-23T18:36:40.451Z,18.77
2022-10-23T18:39:12.393Z,18.76
2022-10-23T18:41:43.643Z,18.76
2022-10-23T18:44:14.652Z,19.01
2022-10-23T18:46:41.581Z,19.02
2022-10-23T18:49:11.693Z,19.05
2022-10-23T18:51:38.694Z,19.11
2022-10-23T18:54:11.170Z,19.04
2022-10-23T18:56:39.732Z,18.94
2022-10-23T18:59:09.811Z,18.79
2022-10-23T19:01:36.666Z,18.55
2022-10-23T19:04:04.021Z,18.42
2022-10-23T19:06:32.000Z,18.25
2022-10-23T19:08:58.735Z,18.15
2022-10-23T19:11:26.475Z,17.88
2022-10-23T19:13:53.217Z,17.70
2022-10-23T19:16:57.933Z,17.67
2022-10-23T19:19:30.589Z,17.51
2022-10-23T19:21:59.037Z,17.40
2022-10-23T19:24:33.626Z,17.21
2022-10-23T19:27:01.937Z,17.07
2022-10-23T19:29:30.215Z,17.03
2022-10-23T19:31:57.626Z,16.94
2022-10-23T19:34:25.117Z,16.85
2022-10-23T19:36:53.489Z,16.84
2022-10-23T19:39:20.733Z,16.80
2022-10-23T19:41:47.562Z,16.88
2022-10-23T19:44:14.934Z,16.78
2022-10-23T19:46:42.140Z,16.78
2022-10-23T19:49:09.609Z,16.70
2022-10-23T19:51:36.704Z,16.66
2022-10-23T19:54:04.072Z,16.64
2022-10-23T19:56:31.804Z,16.61
2022-10-23T19:58:58.411Z,16.65
2022-10-23T20:01:25.960Z,16.57
2022-10-23T20:03:53.077Z,16.54
2022-10-23T20:06:25.692Z,16.48
2022-10-23T20:08:52.566Z,16.53
2022-10-23T20:11:24.592Z,16.53
2022-10-23T20:13:51.707Z,16.42
2022-10-23T20:16:28.293Z,16.35
2022-10-23T20:18:55.446Z,16.31
2022-10-23T20:21:22.303Z,16.26
2022-10-23T20:23:49.469Z,16.21
2022-10-23T20:26:21.126Z,16.24
2022-10-23T20:28:51.470Z,16.27
2022-10-23T20:31:19.964Z,16.23
2022-10-23T20:33:46.675Z,16.37
2022-10-23T20:36:22.272Z,16.49
2022-10-23T20:38:49.357Z,16.64
2022-10-23T20:41:16.050Z,16.74
2022-10-23T20:43:44.084Z,16.78
2022-10-23T20:46:10.977Z,16.83
2022-10-23T20:48:39.651Z,16.84
2022-10-23T20:51:08.608Z,16.88
2022-10-23T20:53:37.104Z,16.98
2022-10-23T20:56:08.674Z,16.96
2022-10-23T20:58:35.705Z,16.89
2022-10-23T21:01:07.058Z,16.85
2022-10-23T21:03:34.196Z,16.91
2022-10-23T21:06:04.074Z,16.96
2022-10-23T21:08:30.985Z,16.96
2022-10-23T21:10:57.755Z,17.07
2022-10-23T21:13:24.615Z,17.17
2022-10-23T21:15:51.521Z,17.25
2022-10-23T21:18:27.172Z,17.30
2022-10-23T21:21:05.475Z,17.27
2022-10-23T21:23:32.155Z,17.22
2022-10-23T21:26:02.199Z,17.17
2022-10-23T21:28:31.978Z,17.12
2022-10-23T21:31:06.693Z,17.16
2022-10-23T21:33:34.103Z,17.07
2022-10-23T21:36:13.510Z,17.07
2022-10-23T21:38:40.831Z,16.99
2022-10-23T21:41:13.866Z,16.93
2022-10-23T21:43:40.824Z,16.95
2022-10-23T21:46:12.113Z,16.78
2022-10-23T21:48:39.717Z,16.66
2022-10-23T21:51:07.247Z,16.52
2022-10-23T21:53:33.932Z,16.46
2022-10-23T21:56:05.241Z,16.31
2022-10-23T21:58:32.414Z,16.22
2022-10-23T22:01:00.262Z,16.06
2022-10-23T22:03:27.011Z,15.97
2022-10-23T22:05:53.563Z,15.94
2022-10-23T22:08:20.464Z,16.05
2022-10-23T22:10:47.381Z,16.10
2022-10-23T22:13:14.298Z,16.06
2022-10-23T22:15:42.479Z,15.99
2022-10-23T22:18:09.101Z,15.94
2022-10-23T22:20:35.753Z,15.91
2022-10-23T22:23:02.426Z,15.92
2022-10-23T22:25:29.124Z,15.87
2022-10-23T22:27:55.977Z,16.02
2022-10-23T22:30:23.090Z,16.07
2022-10-23T22:32:49.749Z,16.03
2022-10-23T22:35:16.361Z,16.14
2022-10-23T22:37:48.449Z,16.23
2022-10-23T22:40:15.201Z,16.22
2022-10-23T22:42:42.197Z,16.29
2022-10-23T22:45:09.600Z,16.25
2022-10-23T22:47:36.084Z,16.26
2022-10-23T22:50:02.722Z,16.24
2022-10-23T22:52:29.575Z,16.27
2022-10-23T22:54:56.467Z,16.23
2022-10-23T22:57:23.117Z,16.38
2022-10-23T22:59:49.876Z,16.39
2022-10-23T23:02:16.505Z,16.43
2022-10-23T23:04:43.240Z,16.47
2022-10-23T23:07:15.385Z,16.47
2022-10-23T23:09:43.939Z,16.52
2022-10-23T23:12:13.409Z,16.53
2022-10-23T23:14:40.991Z,16.53
2022-10-23T23:17:09.061Z,16.52
2022-10-23T23:19:36.091Z,16.56
2022-10-23T23:22:03.000Z,16.57
2022-10-23T23:24:29.687Z,16.59
2022-10-23T23:26:56.240Z,16.65
2022-10-23T23:29:23.339Z,16.63
2022-10-23T23:31:50.108Z,16.63
2022-10-23T23:34:16.797Z,16.59
2022-10-23T23:36:43.459Z,16.60
2022-10-23T23:39:10.069Z,16.61
2022-10-23T23:41:38.167Z,16.55
2022-10-23T23:44:04.932Z,16.53
2022-10-23T23:46:31.568Z,16.51
2022-10-23T23:48:58.268Z,16.47
2022-10-23T23:51:25.893Z,16.60
2022-10-23T23:53:53.119Z,16.61
2022-10-23T23:56:20.207Z,16.54
2022-10-23T23:58:47.691Z,16.49
